Flight Track Log - Related Links

Times and Time Zones

All times are in EDT time to prevent confusion due to time zone crossing. See the UAL3822 flight status page for this flight to view local times or setup timezone preferences in your user account.

Time Position Orientation Groundspeed Altitude Reporting Facility
EDT Latitude Longitude Course Direction KTS MPH feet Rate Location/Type
Thu 07:53:03 AM 40.7500 -74.1167 59° Northeast 214 246 2,700  Level New York TRACON
Thu 07:54:03 AM 40.8000 -74.0667 37° Northeast 240 276 5,300 2,579 Climbing New York TRACON
Thu 07:54:57 AM 40.8500 -74.0167 37° Northeast 248 285 7,600 2,474 Climbing New York TRACON
Thu 07:55:57 AM 40.9000 -73.9500 45° Northeast 255 293 10,000 1,200 Climbing New York TRACON
Thu 07:56:57 AM 40.9500 -73.8667 52° Northeast 325 374 10,000  Level New York TRACON
Thu 07:57:57 AM 41.0167 -73.7833 43° Northeast 315 362 10,000  Level New York TRACON
Thu 07:58:00 AM 40.8969 -73.6773 59° Northeast  Level FlightAware Approximate
Thu 07:58:57 AM 41.0667 -73.6667 60° Northeast 425 489 10,000  Level New York TRACON
Thu 07:59:57 AM 41.0833 -73.5667 78° East 304 350 10,000  Level New York TRACON
Thu 08:00:57 AM 41.1500 -73.5000 37° Northeast 310 357 10,000  Level New York TRACON
Thu 08:01:52 AM 41.2167 -73.4333 37° Northeast 311 358 10,000  Level New York TRACON
Thu 08:02:58 AM 41.3000 -73.3500 37° Northeast 331 381 10,000  Level New York TRACON
Thu 08:03:13 AM 41.3131 -73.3356 40° Northeast 332 382 10,000  Level Boston Center
Thu 08:04:07 AM 41.3803 -73.2672 37° Northeast 332 382 10,000  Level Boston Center
Thu 08:05:08 AM 41.4497 -73.1961 37° Northeast 317 365 10,000  Level Boston Center
Thu 08:06:09 AM 41.5189 -73.1250 38° Northeast 311 358 10,000 -645 Level Boston Center
Thu 08:07:09 AM 41.5775 -73.0644 38° Northeast 257 296 8,700 -1,488 Descending Boston Center
Thu 08:08:10 AM 41.6319 -73.0094 37° Northeast 242 278 7,000 -1,785 Descending Boston Center
Thu 08:09:10 AM 41.6864 -72.9517 38° Northeast 239 275 5,100 -1,835 Descending Boston Center
Thu 08:10:11 AM 41.7367 -72.8992 38° Northeast 239 275 3,300 -1,033 Descending Boston Center
Thu 08:11:12 AM 41.7931 -72.8606 27° Northeast 230 265 3,000 -425 Descending Boston Center
Thu 08:12:18 AM 41.8558 -72.8025 35° Northeast 234 269 2,400 -803 Descending Boston Center
Thu 08:13:19 AM 41.8956 -72.7497 45° Northeast 205 236 1,300 -934 Descending Boston Center
Thu 08:14:20 AM 41.9228 -72.7136 45° Northeast 142 163 500 -787 Descending Boston Center
Thu 08:16:00 AM 41.9333 -72.6833 37° Northeast  Level FlightAware Approximate

Login

Don't have an account? Register now (free) for customized features, flight alerts, and more!